sensor_id;sensor_type;location;lat;lon;timestamp;P1;durP1;ratioP1;P2;durP2;ratioP2
73283;SDS011;61519;60.050;18.582;2022-10-31T15:50:35;10.20;;;5.43;;
73283;SDS011;61519;60.050;18.582;2022-10-31T15:53:04;15.68;;;5.50;;
73283;SDS011;61519;60.050;18.582;2022-10-31T15:55:32;15.88;;;4.88;;
73283;SDS011;61519;60.050;18.582;2022-10-31T15:58:09;15.25;;;4.65;;
73283;SDS011;61519;60.050;18.582;2022-10-31T16:00:36;16.20;;;5.43;;
73283;SDS011;61519;60.050;18.582;2022-10-31T16:08:23;16.73;;;4.93;;
73283;SDS011;61519;60.050;18.582;2022-10-31T16:13:36;13.80;;;4.67;;
73283;SDS011;61519;60.050;18.582;2022-10-31T16:16:04;14.68;;;5.45;;
73283;SDS011;61519;60.050;18.582;2022-10-31T16:18:38;12.15;;;5.13;;
73283;SDS011;61519;60.050;18.582;2022-10-31T16:21:05;12.27;;;5.22;;
73283;SDS011;61519;60.050;18.582;2022-10-31T16:23:31;12.90;;;5.03;;
73283;SDS011;61519;60.050;18.582;2022-10-31T16:25:56;15.40;;;5.00;;
73283;SDS011;61519;60.050;18.582;2022-10-31T16:28:23;16.00;;;5.10;;
73283;SDS011;61519;60.050;18.582;2022-10-31T16:30:51;16.73;;;4.97;;
73283;SDS011;61519;60.050;18.582;2022-10-31T16:36:28;14.05;;;5.05;;
73283;SDS011;61519;60.050;18.582;2022-10-31T16:38:52;12.85;;;4.32;;
73283;SDS011;61519;60.050;18.582;2022-10-31T16:41:20;15.35;;;5.30;;
73283;SDS011;61519;60.050;18.582;2022-10-31T16:43:45;16.50;;;4.80;;
73283;SDS011;61519;60.050;18.582;2022-10-31T16:46:14;15.50;;;5.10;;
73283;SDS011;61519;60.050;18.582;2022-10-31T16:48:42;15.55;;;4.78;;
73283;SDS011;61519;60.050;18.582;2022-10-31T16:51:08;9.63;;;4.63;;
73283;SDS011;61519;60.050;18.582;2022-10-31T16:53:33;14.83;;;4.70;;
73283;SDS011;61519;60.050;18.582;2022-10-31T16:55:58;13.70;;;4.97;;
73283;SDS011;61519;60.050;18.582;2022-10-31T16:58:27;11.73;;;5.18;;
73283;SDS011;61519;60.050;18.582;2022-10-31T17:00:54;10.38;;;5.00;;
73283;SDS011;61519;60.050;18.582;2022-10-31T17:03:20;11.70;;;4.60;;
73283;SDS011;61519;60.050;18.582;2022-10-31T17:05:46;12.65;;;5.18;;
73283;SDS011;61519;60.050;18.582;2022-10-31T17:08:11;13.73;;;5.17;;
73283;SDS011;61519;60.050;18.582;2022-10-31T17:10:37;18.60;;;5.20;;
73283;SDS011;61519;60.050;18.582;2022-10-31T17:13:03;15.30;;;5.22;;
73283;SDS011;61519;60.050;18.582;2022-10-31T17:15:32;15.48;;;5.18;;
73283;SDS011;61519;60.050;18.582;2022-10-31T17:18:03;12.57;;;5.00;;
73283;SDS011;61519;60.050;18.582;2022-10-31T17:20:29;14.13;;;4.80;;
73283;SDS011;61519;60.050;18.582;2022-10-31T17:22:55;11.27;;;5.22;;
73283;SDS011;61519;60.050;18.582;2022-10-31T17:25:23;8.77;;;4.60;;
73283;SDS011;61519;60.050;18.582;2022-10-31T17:27:50;13.20;;;5.25;;
73283;SDS011;61519;60.050;18.582;2022-10-31T17:30:16;12.27;;;5.07;;
73283;SDS011;61519;60.050;18.582;2022-10-31T17:32:43;12.77;;;5.25;;
73283;SDS011;61519;60.050;18.582;2022-10-31T17:35:09;11.23;;;5.30;;
73283;SDS011;61519;60.050;18.582;2022-10-31T17:37:35;12.45;;;5.25;;
73283;SDS011;61519;60.050;18.582;2022-10-31T17:40:00;13.67;;;4.93;;
73283;SDS011;61519;60.050;18.582;2022-10-31T17:42:26;14.53;;;4.93;;
73283;SDS011;61519;60.050;18.582;2022-10-31T17:44:51;13.47;;;5.03;;
73283;SDS011;61519;60.050;18.582;2022-10-31T17:47:16;13.73;;;5.00;;
73283;SDS011;61519;60.050;18.582;2022-10-31T17:49:42;10.82;;;4.63;;
73283;SDS011;61519;60.050;18.582;2022-10-31T17:52:07;11.35;;;4.65;;
73283;SDS011;61519;60.050;18.582;2022-10-31T17:54:33;13.30;;;4.30;;
73283;SDS011;61519;60.050;18.582;2022-10-31T17:56:58;11.40;;;4.50;;
73283;SDS011;61519;60.050;18.582;2022-10-31T17:59:23;10.87;;;4.10;;
73283;SDS011;61519;60.050;18.582;2022-10-31T18:01:49;13.00;;;4.63;;
73283;SDS011;61519;60.050;18.582;2022-10-31T18:04:14;13.53;;;4.73;;
73283;SDS011;61519;60.050;18.582;2022-10-31T18:06:39;13.03;;;4.37;;
73283;SDS011;61519;60.050;18.582;2022-10-31T18:09:05;12.82;;;4.80;;
73283;SDS011;61519;60.050;18.582;2022-10-31T18:11:31;13.20;;;4.07;;
73283;SDS011;61519;60.050;18.582;2022-10-31T18:13:57;12.20;;;4.40;;
73283;SDS011;61519;60.050;18.582;2022-10-31T18:16:23;9.17;;;4.23;;
73283;SDS011;61519;60.050;18.582;2022-10-31T18:18:50;13.50;;;5.22;;
73283;SDS011;61519;60.050;18.582;2022-10-31T18:21:16;15.95;;;9.23;;
73283;SDS011;61519;60.050;18.582;2022-10-31T18:23:42;16.43;;;8.83;;
73283;SDS011;61519;60.050;18.582;2022-10-31T18:26:07;16.53;;;7.30;;
73283;SDS011;61519;60.050;18.582;2022-10-31T18:28:32;12.23;;;6.20;;
73283;SDS011;61519;60.050;18.582;2022-10-31T18:30:58;17.27;;;7.20;;
73283;SDS011;61519;60.050;18.582;2022-10-31T18:33:24;50.92;;;22.67;;
73283;SDS011;61519;60.050;18.582;2022-10-31T18:35:49;65.13;;;33.57;;
73283;SDS011;61519;60.050;18.582;2022-10-31T18:38:15;64.53;;;37.47;;
73283;SDS011;61519;60.050;18.582;2022-10-31T18:40:40;26.53;;;16.50;;
73283;SDS011;61519;60.050;18.582;2022-10-31T18:43:06;21.23;;;10.23;;
73283;SDS011;61519;60.050;18.582;2022-10-31T18:45:31;16.97;;;9.10;;
73283;SDS011;61519;60.050;18.582;2022-10-31T18:47:57;15.07;;;8.43;;
73283;SDS011;61519;60.050;18.582;2022-10-31T18:50:22;22.00;;;11.80;;
73283;SDS011;61519;60.050;18.582;2022-10-31T18:52:47;13.07;;;6.30;;
73283;SDS011;61519;60.050;18.582;2022-10-31T18:55:13;11.83;;;5.23;;
73283;SDS011;61519;60.050;18.582;2022-10-31T18:57:38;14.60;;;5.35;;
73283;SDS011;61519;60.050;18.582;2022-10-31T19:00:04;11.05;;;5.53;;
73283;SDS011;61519;60.050;18.582;2022-10-31T19:02:30;13.33;;;4.60;;
73283;SDS011;61519;60.050;18.582;2022-10-31T19:04:56;167.85;;;71.40;;
73283;SDS011;61519;60.050;18.582;2022-10-31T19:07:21;172.47;;;74.97;;
73283;SDS011;61519;60.050;18.582;2022-10-31T19:09:47;64.00;;;28.73;;
73283;SDS011;61519;60.050;18.582;2022-10-31T19:12:12;52.33;;;23.43;;
73283;SDS011;61519;60.050;18.582;2022-10-31T19:14:37;125.57;;;56.80;;
73283;SDS011;61519;60.050;18.582;2022-10-31T19:17:02;86.73;;;50.00;;
73283;SDS011;61519;60.050;18.582;2022-10-31T19:19:28;24.70;;;14.43;;
73283;SDS011;61519;60.050;18.582;2022-10-31T19:21:53;19.70;;;10.00;;
73283;SDS011;61519;60.050;18.582;2022-10-31T19:24:20;21.33;;;9.33;;
73283;SDS011;61519;60.050;18.582;2022-10-31T19:26:45;13.65;;;6.72;;
73283;SDS011;61519;60.050;18.582;2022-10-31T19:29:11;14.47;;;5.23;;
73283;SDS011;61519;60.050;18.582;2022-10-31T19:31:37;15.27;;;5.07;;
73283;SDS011;61519;60.050;18.582;2022-10-31T19:34:02;12.33;;;5.63;;
73283;SDS011;61519;60.050;18.582;2022-10-31T19:36:28;17.90;;;5.23;;
73283;SDS011;61519;60.050;18.582;2022-10-31T19:38:53;11.17;;;4.53;;
73283;SDS011;61519;60.050;18.582;2022-10-31T19:41:20;11.75;;;4.57;;
73283;SDS011;61519;60.050;18.582;2022-10-31T19:43:48;8.77;;;3.87;;
73283;SDS011;61519;60.050;18.582;2022-10-31T19:46:14;10.23;;;4.38;;
73283;SDS011;61519;60.050;18.582;2022-10-31T19:48:41;9.13;;;3.97;;
73283;SDS011;61519;60.050;18.582;2022-10-31T19:51:10;11.70;;;4.22;;
73283;SDS011;61519;60.050;18.582;2022-10-31T19:53:37;8.27;;;3.30;;
73283;SDS011;61519;60.050;18.582;2022-10-31T19:56:03;11.27;;;4.95;;
73283;SDS011;61519;60.050;18.582;2022-10-31T19:58:34;14.15;;;6.45;;
73283;SDS011;61519;60.050;18.582;2022-10-31T20:01:04;17.00;;;6.63;;
73283;SDS011;61519;60.050;18.582;2022-10-31T20:03:31;13.18;;;5.85;;
73283;SDS011;61519;60.050;18.582;2022-10-31T20:05:56;13.80;;;5.30;;
73283;SDS011;61519;60.050;18.582;2022-10-31T20:08:21;13.73;;;4.93;;
73283;SDS011;61519;60.050;18.582;2022-10-31T20:10:54;12.23;;;6.55;;
73283;SDS011;61519;60.050;18.582;2022-10-31T20:13:20;12.67;;;5.40;;
73283;SDS011;61519;60.050;18.582;2022-10-31T20:15:46;13.90;;;6.68;;
73283;SDS011;61519;60.050;18.582;2022-10-31T20:18:11;18.87;;;8.50;;
73283;SDS011;61519;60.050;18.582;2022-10-31T20:20:36;14.83;;;6.73;;
73283;SDS011;61519;60.050;18.582;2022-10-31T20:23:02;11.57;;;5.10;;
73283;SDS011;61519;60.050;18.582;2022-10-31T20:25:27;28.27;;;8.03;;
73283;SDS011;61519;60.050;18.582;2022-10-31T20:27:53;35.97;;;7.77;;
73283;SDS011;61519;60.050;18.582;2022-10-31T20:30:18;21.53;;;7.40;;
73283;SDS011;61519;60.050;18.582;2022-10-31T20:32:43;26.85;;;7.55;;
73283;SDS011;61519;60.050;18.582;2022-10-31T20:35:09;12.90;;;6.13;;
73283;SDS011;61519;60.050;18.582;2022-10-31T20:37:34;10.57;;;5.20;;
73283;SDS011;61519;60.050;18.582;2022-10-31T20:40:00;11.27;;;5.30;;
73283;SDS011;61519;60.050;18.582;2022-10-31T20:42:25;8.93;;;4.73;;
73283;SDS011;61519;60.050;18.582;2022-10-31T20:44:50;14.60;;;4.90;;
73283;SDS011;61519;60.050;18.582;2022-10-31T20:47:16;11.60;;;4.78;;
73283;SDS011;61519;60.050;18.582;2022-10-31T20:49:41;12.07;;;4.00;;
73283;SDS011;61519;60.050;18.582;2022-10-31T20:52:07;6.90;;;3.43;;
73283;SDS011;61519;60.050;18.582;2022-10-31T20:54:32;6.67;;;3.53;;
73283;SDS011;61519;60.050;18.582;2022-10-31T20:56:57;9.93;;;3.67;;
73283;SDS011;61519;60.050;18.582;2022-10-31T20:59:23;9.43;;;4.10;;
73283;SDS011;61519;60.050;18.582;2022-10-31T21:01:48;9.75;;;2.85;;
73283;SDS011;61519;60.050;18.582;2022-10-31T21:04:13;125.90;;;27.90;;
73283;SDS011;61519;60.050;18.582;2022-10-31T21:06:39;85.13;;;18.17;;
73283;SDS011;61519;60.050;18.582;2022-10-31T21:09:04;56.93;;;16.60;;
73283;SDS011;61519;60.050;18.582;2022-10-31T21:11:30;14.85;;;4.63;;
73283;SDS011;61519;60.050;18.582;2022-10-31T21:13:57;20.67;;;6.93;;
73283;SDS011;61519;60.050;18.582;2022-10-31T21:16:24;20.80;;;9.07;;
73283;SDS011;61519;60.050;18.582;2022-10-31T21:18:52;11.82;;;6.32;;
73283;SDS011;61519;60.050;18.582;2022-10-31T21:21:25;9.40;;;5.57;;
73283;SDS011;61519;60.050;18.582;2022-10-31T21:23:52;10.32;;;4.50;;
73283;SDS011;61519;60.050;18.582;2022-10-31T21:26:19;8.00;;;3.78;;
73283;SDS011;61519;60.050;18.582;2022-10-31T21:28:47;10.13;;;5.70;;
73283;SDS011;61519;60.050;18.582;2022-10-31T21:31:14;11.33;;;5.47;;
73283;SDS011;61519;60.050;18.582;2022-10-31T21:33:40;27.50;;;5.30;;
73283;SDS011;61519;60.050;18.582;2022-10-31T21:36:07;8.35;;;3.13;;
73283;SDS011;61519;60.050;18.582;2022-10-31T21:38:34;12.10;;;3.58;;
73283;SDS011;61519;60.050;18.582;2022-10-31T21:41:00;9.13;;;3.67;;
73283;SDS011;61519;60.050;18.582;2022-10-31T21:43:27;9.70;;;3.63;;
73283;SDS011;61519;60.050;18.582;2022-10-31T21:45:53;11.20;;;2.85;;
73283;SDS011;61519;60.050;18.582;2022-10-31T21:48:18;14.87;;;3.80;;
73283;SDS011;61519;60.050;18.582;2022-10-31T21:50:43;6.67;;;3.03;;
73283;SDS011;61519;60.050;18.582;2022-10-31T21:53:09;7.65;;;3.55;;
73283;SDS011;61519;60.050;18.582;2022-10-31T21:55:53;7.43;;;3.33;;
73283;SDS011;61519;60.050;18.582;2022-10-31T21:58:19;18.77;;;9.95;;
73283;SDS011;61519;60.050;18.582;2022-10-31T22:00:44;17.40;;;9.27;;
73283;SDS011;61519;60.050;18.582;2022-10-31T22:03:09;15.97;;;7.70;;
73283;SDS011;61519;60.050;18.582;2022-10-31T22:05:35;22.63;;;10.93;;
73283;SDS011;61519;60.050;18.582;2022-10-31T22:08:00;33.63;;;10.80;;
73283;SDS011;61519;60.050;18.582;2022-10-31T22:10:26;48.58;;;19.92;;
73283;SDS011;61519;60.050;18.582;2022-10-31T22:12:51;32.20;;;14.43;;
73283;SDS011;61519;60.050;18.582;2022-10-31T22:15:16;37.20;;;17.70;;
73283;SDS011;61519;60.050;18.582;2022-10-31T22:17:46;37.33;;;18.63;;
73283;SDS011;61519;60.050;18.582;2022-10-31T22:20:12;24.23;;;13.80;;
73283;SDS011;61519;60.050;18.582;2022-10-31T22:22:38;15.38;;;8.68;;
73283;SDS011;61519;60.050;18.582;2022-10-31T22:25:03;13.03;;;6.00;;
73283;SDS011;61519;60.050;18.582;2022-10-31T22:27:29;10.23;;;5.07;;
73283;SDS011;61519;60.050;18.582;2022-10-31T22:29:54;9.18;;;4.88;;
73283;SDS011;61519;60.050;18.582;2022-10-31T22:32:20;9.63;;;4.00;;
73283;SDS011;61519;60.050;18.582;2022-10-31T22:34:47;6.20;;;3.28;;
73283;SDS011;61519;60.050;18.582;2022-10-31T22:37:12;6.03;;;2.57;;
73283;SDS011;61519;60.050;18.582;2022-10-31T22:39:38;7.83;;;2.60;;
73283;SDS011;61519;60.050;18.582;2022-10-31T22:42:03;4.57;;;2.13;;
73283;SDS011;61519;60.050;18.582;2022-10-31T22:44:28;6.30;;;2.20;;
73283;SDS011;61519;60.050;18.582;2022-10-31T22:46:54;7.23;;;2.07;;
73283;SDS011;61519;60.050;18.582;2022-10-31T22:49:19;4.30;;;2.00;;
73283;SDS011;61519;60.050;18.582;2022-10-31T22:51:44;5.37;;;2.50;;
73283;SDS011;61519;60.050;18.582;2022-10-31T22:54:12;26.83;;;3.50;;
73283;SDS011;61519;60.050;18.582;2022-10-31T22:56:41;5.95;;;2.20;;
73283;SDS011;61519;60.050;18.582;2022-10-31T22:59:07;6.20;;;2.20;;
73283;SDS011;61519;60.050;18.582;2022-10-31T23:01:35;4.83;;;1.90;;
73283;SDS011;61519;60.050;18.582;2022-10-31T23:04:00;5.60;;;2.22;;
73283;SDS011;61519;60.050;18.582;2022-10-31T23:06:26;7.73;;;2.13;;
73283;SDS011;61519;60.050;18.582;2022-10-31T23:08:54;9.77;;;2.20;;
73283;SDS011;61519;60.050;18.582;2022-10-31T23:13:54;4.43;;;2.10;;
73283;SDS011;61519;60.050;18.582;2022-10-31T23:16:44;4.72;;;1.95;;
73283;SDS011;61519;60.050;18.582;2022-10-31T23:19:21;7.30;;;2.15;;
73283;SDS011;61519;60.050;18.582;2022-10-31T23:21:49;6.68;;;2.20;;
73283;SDS011;61519;60.050;18.582;2022-10-31T23:24:20;39.53;;;2.88;;
73283;SDS011;61519;60.050;18.582;2022-10-31T23:26:47;9.87;;;2.23;;
73283;SDS011;61519;60.050;18.582;2022-10-31T23:29:32;4.07;;;2.00;;
73283;SDS011;61519;60.050;18.582;2022-10-31T23:31:58;4.28;;;1.85;;
73283;SDS011;61519;60.050;18.582;2022-10-31T23:34:24;5.33;;;1.97;;
73283;SDS011;61519;60.050;18.582;2022-10-31T23:36:49;3.85;;;1.98;;
73283;SDS011;61519;60.050;18.582;2022-10-31T23:39:14;8.32;;;1.98;;
73283;SDS011;61519;60.050;18.582;2022-10-31T23:41:40;6.30;;;1.97;;
73283;SDS011;61519;60.050;18.582;2022-10-31T23:44:06;7.27;;;2.10;;
73283;SDS011;61519;60.050;18.582;2022-10-31T23:46:31;4.13;;;1.90;;
73283;SDS011;61519;60.050;18.582;2022-10-31T23:48:56;4.05;;;1.50;;
73283;SDS011;61519;60.050;18.582;2022-10-31T23:51:22;6.63;;;1.88;;
73283;SDS011;61519;60.050;18.582;2022-10-31T23:53:47;5.73;;;1.90;;
73283;SDS011;61519;60.050;18.582;2022-10-31T23:56:12;4.20;;;1.80;;
73283;SDS011;61519;60.050;18.582;2022-10-31T23:58:39;4.30;;;1.50;;
